createdAt,value
2016-12-13T00:00:05.475Z,925.68
2016-12-13T00:00:33.880Z,925.68
2016-12-13T00:01:01.679Z,925.66
2016-12-13T00:01:29.522Z,925.71
2016-12-13T00:01:57.564Z,925.73
2016-12-13T00:02:25.412Z,925.72
2016-12-13T00:02:53.273Z,925.72
2016-12-13T00:03:21.104Z,925.74
2016-12-13T00:03:49.010Z,925.7
2016-12-13T00:04:16.816Z,925.75
2016-12-13T00:04:44.750Z,925.79
2016-12-13T00:05:12.663Z,925.78
2016-12-13T00:05:40.442Z,925.77
2016-12-13T00:06:08.309Z,925.78
2016-12-13T00:06:36.173Z,925.8
2016-12-13T00:07:04.225Z,925.8
2016-12-13T00:07:32.056Z,925.79
2016-12-13T00:08:00.024Z,925.81
2016-12-13T00:08:27.891Z,925.78
2016-12-13T00:08:55.878Z,925.81
2016-12-13T00:09:23.726Z,925.81
2016-12-13T00:09:51.559Z,925.8
2016-12-13T00:10:19.370Z,925.8
2016-12-13T00:10:47.287Z,925.81
2016-12-13T00:11:15.255Z,925.8
2016-12-13T00:11:43.150Z,925.82
2016-12-13T00:12:11.269Z,925.84
2016-12-13T00:12:39.157Z,925.84
2016-12-13T00:13:07.033Z,925.86
2016-12-13T00:13:34.901Z,925.87
2016-12-13T00:14:02.736Z,925.88
2016-12-13T00:14:30.682Z,925.86
2016-12-13T00:14:58.542Z,925.88
2016-12-13T00:15:26.503Z,925.87
2016-12-13T00:15:54.458Z,925.89
2016-12-13T00:16:22.367Z,925.94
2016-12-13T00:16:50.202Z,925.92
2016-12-13T00:17:18.287Z,925.94
2016-12-13T00:17:46.162Z,925.97
2016-12-13T00:18:14.001Z,925.98
2016-12-13T00:18:42.028Z,926.03
2016-12-13T00:19:09.870Z,926.01
2016-12-13T00:19:37.743Z,926.03
2016-12-13T00:20:05.762Z,926.02
2016-12-13T00:20:33.694Z,926.05
2016-12-13T00:21:01.538Z,926.05
2016-12-13T00:21:29.378Z,926.07
2016-12-13T00:21:57.261Z,926.09
2016-12-13T00:22:25.327Z,926.07
2016-12-13T00:22:53.282Z,926.07
2016-12-13T00:23:21.302Z,926.07
2016-12-13T00:23:49.214Z,926.09
2016-12-13T00:24:17.078Z,926.06
2016-12-13T00:24:44.935Z,926.05
2016-12-13T00:25:12.862Z,926.06
2016-12-13T00:25:40.708Z,926.06
2016-12-13T00:26:08.547Z,926.04
2016-12-13T00:26:36.468Z,926.07
2016-12-13T00:27:04.593Z,926.06
2016-12-13T00:27:32.668Z,926.1
2016-12-13T00:28:00.512Z,926.1
2016-12-13T00:28:28.360Z,926.15
2016-12-13T00:28:56.210Z,926.13
2016-12-13T00:29:24.105Z,926.14
2016-12-13T00:29:51.963Z,926.12
2016-12-13T00:30:19.779Z,926.13
2016-12-13T00:30:47.704Z,926.11
2016-12-13T00:31:15.649Z,926.12
2016-12-13T00:31:43.493Z,926.1
2016-12-13T00:32:11.564Z,926.13
2016-12-13T00:32:39.488Z,926.1
2016-12-13T00:33:07.384Z,926.13
2016-12-13T00:33:35.227Z,926.13
2016-12-13T00:34:03.247Z,926.11
2016-12-13T00:34:31.078Z,926.13
2016-12-13T00:34:58.908Z,926.13
2016-12-13T00:35:26.734Z,926.14
2016-12-13T00:35:54.640Z,926.14
2016-12-13T00:36:22.497Z,926.14
2016-12-13T00:36:50.374Z,926.11
2016-12-13T00:37:18.502Z,926.09
2016-12-13T00:37:46.378Z,926.13
2016-12-13T00:38:14.257Z,926.12
2016-12-13T00:38:42.100Z,926.13
2016-12-13T00:39:09.935Z,926.12
2016-12-13T00:39:37.808Z,926.11
2016-12-13T00:40:05.582Z,926.1
2016-12-13T00:40:33.554Z,926.09
2016-12-13T00:41:01.414Z,926.12
2016-12-13T00:41:29.289Z,926.15
2016-12-13T00:41:57.159Z,926.14
2016-12-13T00:42:25.197Z,926.09
2016-12-13T00:42:53.029Z,926.12
2016-12-13T00:43:20.872Z,926.11
2016-12-13T00:43:48.686Z,926.13
2016-12-13T00:44:16.568Z,926.12
2016-12-13T00:44:44.432Z,926.11
2016-12-13T00:45:12.288Z,926.13
2016-12-13T00:45:40.085Z,926.08
2016-12-13T00:46:07.968Z,926.09
2016-12-13T00:46:35.786Z,926.13
2016-12-13T00:47:03.611Z,926.11
2016-12-13T00:47:31.667Z,926.15
2016-12-13T00:47:59.585Z,926.15
2016-12-13T00:48:27.418Z,926.18
2016-12-13T00:48:55.277Z,926.18
2016-12-13T00:49:23.124Z,926.18
2016-12-13T00:49:50.963Z,926.19
2016-12-13T00:50:18.773Z,926.18
2016-12-13T00:50:46.583Z,926.19
2016-12-13T00:51:14.451Z,926.18
2016-12-13T00:51:42.264Z,926.18
2016-12-13T00:52:10.315Z,926.16
2016-12-13T00:52:38.143Z,926.17
2016-12-13T00:53:06.003Z,926.16
2016-12-13T00:53:33.801Z,926.16
2016-12-13T00:54:01.617Z,926.19
2016-12-13T00:54:29.419Z,926.2
2016-12-13T00:54:57.266Z,926.18
2016-12-13T00:55:25.201Z,926.19
2016-12-13T00:55:53.024Z,926.18
2016-12-13T00:56:20.944Z,926.17
2016-12-13T00:56:48.757Z,926.19
2016-12-13T00:57:16.777Z,926.17
2016-12-13T00:57:44.719Z,926.18
2016-12-13T00:58:12.725Z,926.19
2016-12-13T00:58:40.693Z,926.18
2016-12-13T00:59:08.565Z,926.16
2016-12-13T00:59:36.421Z,926.17
2016-12-13T01:00:04.198Z,926.15
2016-12-13T01:00:32.078Z,926.13
2016-12-13T01:01:00.064Z,926.15
2016-12-13T01:01:27.920Z,926.15
2016-12-13T01:01:55.753Z,926.1
2016-12-13T01:02:23.886Z,926.14
2016-12-13T01:02:51.738Z,926.12
2016-12-13T01:03:19.621Z,926.15
2016-12-13T01:03:47.609Z,926.17
2016-12-13T01:04:15.499Z,926.11
2016-12-13T01:04:43.422Z,926.15
2016-12-13T01:05:11.405Z,926.22
2016-12-13T01:05:39.258Z,926.21
2016-12-13T01:06:07.037Z,926.22
2016-12-13T01:06:34.828Z,926.25
2016-12-13T01:07:02.661Z,926.22
2016-12-13T01:07:30.696Z,926.22
2016-12-13T01:07:58.552Z,926.2
2016-12-13T01:08:26.426Z,926.25
2016-12-13T01:08:54.302Z,926.26
2016-12-13T01:09:22.123Z,926.23
2016-12-13T01:09:49.911Z,926.24
2016-12-13T01:10:17.779Z,926.21
2016-12-13T01:10:45.582Z,926.23
2016-12-13T01:11:13.556Z,926.24
2016-12-13T01:11:41.406Z,926.24
2016-12-13T01:12:09.233Z,926.21
2016-12-13T01:12:37.284Z,926.23
2016-12-13T01:13:05.200Z,926.19
2016-12-13T01:13:33.030Z,926.22
2016-12-13T01:14:00.923Z,926.19
2016-12-13T01:14:28.761Z,926.16
2016-12-13T01:14:56.627Z,926.19
2016-12-13T01:15:24.487Z,926.15
2016-12-13T01:15:52.325Z,926.18
2016-12-13T01:16:20.196Z,926.15
2016-12-13T01:16:48.229Z,926.13
2016-12-13T01:17:16.072Z,926.15
2016-12-13T01:17:44.139Z,926.08
2016-12-13T01:18:12.024Z,926.12
2016-12-13T01:18:39.894Z,926.08
2016-12-13T01:19:07.709Z,926.04
2016-12-13T01:19:35.659Z,926.05
2016-12-13T01:20:03.517Z,926
2016-12-13T01:20:31.406Z,926.01
2016-12-13T01:20:59.252Z,926
2016-12-13T01:21:27.073Z,925.99
2016-12-13T01:21:54.882Z,925.99
2016-12-13T01:22:22.972Z,926.01
2016-12-13T01:22:50.831Z,925.94
2016-12-13T01:23:18.676Z,925.99
2016-12-13T01:23:46.535Z,925.98
2016-12-13T01:24:14.487Z,926
2016-12-13T01:24:42.391Z,925.97
2016-12-13T01:25:10.272Z,925.98
2016-12-13T01:25:38.154Z,925.97
2016-12-13T01:26:06.107Z,925.98
2016-12-13T01:26:33.955Z,925.97
2016-12-13T01:27:01.901Z,925.97
2016-12-13T01:27:29.939Z,925.97
2016-12-13T01:27:57.807Z,925.94
2016-12-13T01:28:25.618Z,925.94
2016-12-13T01:28:53.522Z,925.92
2016-12-13T01:29:21.388Z,925.92
2016-12-13T01:29:49.227Z,925.91
2016-12-13T01:30:17.068Z,925.88
2016-12-13T01:30:44.945Z,925.86
2016-12-13T01:31:12.864Z,925.89
2016-12-13T01:31:40.716Z,925.9
2016-12-13T01:32:08.650Z,925.89
2016-12-13T01:32:36.657Z,925.87
2016-12-13T01:33:04.514Z,925.88
2016-12-13T01:33:32.408Z,925.88
2016-12-13T01:34:00.220Z,925.91
2016-12-13T01:34:28.102Z,925.89
2016-12-13T01:34:55.958Z,925.9
2016-12-13T01:35:23.803Z,925.86
2016-12-13T01:35:51.628Z,925.88
2016-12-13T01:36:19.478Z,925.9
2016-12-13T01:36:47.342Z,925.88
2016-12-13T01:37:15.192Z,925.87
2016-12-13T01:37:43.314Z,925.86
2016-12-13T01:38:11.231Z,925.84
2016-12-13T01:38:39.224Z,925.86
2016-12-13T01:39:07.053Z,925.84
2016-12-13T01:39:34.971Z,925.84
2016-12-13T01:40:02.843Z,925.84
2016-12-13T01:40:30.778Z,925.85
2016-12-13T01:40:58.644Z,925.82
2016-12-13T01:41:26.486Z,925.8
2016-12-13T01:41:54.333Z,925.83
2016-12-13T01:42:22.285Z,925.8
2016-12-13T01:42:50.384Z,925.8
2016-12-13T01:43:18.206Z,925.82
2016-12-13T01:43:45.994Z,925.81
2016-12-13T01:44:13.945Z,925.82
2016-12-13T01:44:41.800Z,925.8
2016-12-13T01:45:09.609Z,925.82
2016-12-13T01:45:37.539Z,925.83
2016-12-13T01:46:05.416Z,925.85
2016-12-13T01:46:33.256Z,925.84
2016-12-13T01:47:01.113Z,925.89
2016-12-13T01:47:29.134Z,925.86
2016-12-13T01:47:56.986Z,925.87
2016-12-13T01:48:24.841Z,925.85
2016-12-13T01:48:52.655Z,925.89
2016-12-13T01:49:20.465Z,925.89
2016-12-13T01:49:48.340Z,925.86
2016-12-13T01:50:16.203Z,925.84
2016-12-13T01:50:44.091Z,925.87
2016-12-13T01:51:11.969Z,925.81
2016-12-13T01:51:39.828Z,925.81
2016-12-13T01:52:07.668Z,925.8
2016-12-13T01:52:35.801Z,925.83
2016-12-13T01:53:03.692Z,925.83
2016-12-13T01:53:31.539Z,925.8
2016-12-13T01:53:59.344Z,925.86
2016-12-13T01:54:27.195Z,925.82
2016-12-13T01:54:55.124Z,925.82
2016-12-13T01:55:23.007Z,925.84
2016-12-13T01:55:50.907Z,925.86
2016-12-13T01:56:18.845Z,925.88
2016-12-13T01:56:46.708Z,925.89
2016-12-13T01:57:14.655Z,925.88
2016-12-13T01:57:42.686Z,925.88
2016-12-13T01:58:10.521Z,925.92
2016-12-13T01:58:38.360Z,925.92
2016-12-13T01:59:06.229Z,925.92
2016-12-13T01:59:34.074Z,925.95
2016-12-13T02:00:02.015Z,925.94
2016-12-13T02:00:29.867Z,925.92
2016-12-13T02:00:57.812Z,925.94
2016-12-13T02:01:25.663Z,925.92
2016-12-13T02:01:53.511Z,925.96
2016-12-13T02:02:21.390Z,925.95
2016-12-13T02:02:49.445Z,925.94
2016-12-13T02:03:17.278Z,925.91
2016-12-13T02:03:45.165Z,925.92
2016-12-13T02:04:13.128Z,925.91
2016-12-13T02:04:41.094Z,925.91
2016-12-13T02:05:08.971Z,925.9
2016-12-13T02:05:36.856Z,925.89
2016-12-13T02:06:04.719Z,925.9
2016-12-13T02:06:32.609Z,925.9
2016-12-13T02:07:00.528Z,925.89
2016-12-13T02:07:28.461Z,925.93
2016-12-13T02:07:56.529Z,925.94
2016-12-13T02:08:24.414Z,925.94
2016-12-13T02:08:52.279Z,925.92
2016-12-13T02:09:20.137Z,925.95
2016-12-13T02:09:47.981Z,925.94
2016-12-13T02:10:15.889Z,925.93
2016-12-13T02:10:43.752Z,925.95
2016-12-13T02:11:11.563Z,925.89
2016-12-13T02:11:39.347Z,925.91
2016-12-13T02:12:07.219Z,925.87
2016-12-13T02:12:35.018Z,925.9
2016-12-13T02:13:03.090Z,925.87
2016-12-13T02:13:30.955Z,925.84
2016-12-13T02:13:58.823Z,925.89
2016-12-13T02:14:26.671Z,925.84
2016-12-13T02:14:54.526Z,925.85
2016-12-13T02:15:22.400Z,925.86
2016-12-13T02:15:50.267Z,925.83
2016-12-13T02:16:18.133Z,925.83
2016-12-13T02:16:45.971Z,925.8
2016-12-13T02:17:13.807Z,925.79
2016-12-13T02:17:41.840Z,925.8
2016-12-13T02:18:09.674Z,925.77
2016-12-13T02:18:37.517Z,925.75
2016-12-13T02:19:05.367Z,925.77
2016-12-13T02:19:33.239Z,925.76
2016-12-13T02:20:01.031Z,925.74
2016-12-13T02:20:28.879Z,925.73
2016-12-13T02:20:56.745Z,925.7
2016-12-13T02:21:24.563Z,925.72
2016-12-13T02:21:52.416Z,925.73
2016-12-13T02:22:20.341Z,925.73
2016-12-13T02:22:48.372Z,925.71
2016-12-13T02:23:16.246Z,925.7
2016-12-13T02:23:44.102Z,925.74
2016-12-13T02:24:11.990Z,925.69
2016-12-13T02:24:39.812Z,925.71
2016-12-13T02:25:07.646Z,925.68
2016-12-13T02:25:35.464Z,925.7
2016-12-13T02:26:03.281Z,925.68
2016-12-13T02:26:31.145Z,925.66
2016-12-13T02:26:58.998Z,925.68
2016-12-13T02:27:26.860Z,925.69
2016-12-13T02:27:54.975Z,925.68
2016-12-13T02:28:22.847Z,925.64
2016-12-13T02:28:50.749Z,925.63
2016-12-13T02:29:18.560Z,925.69
2016-12-13T02:29:46.405Z,925.63
2016-12-13T02:30:14.287Z,925.65
2016-12-13T02:30:42.333Z,925.63
2016-12-13T02:31:10.194Z,925.59
2016-12-13T02:31:38.053Z,925.61
2016-12-13T02:32:05.971Z,925.57
2016-12-13T02:32:33.772Z,925.59
2016-12-13T02:33:01.893Z,925.6
2016-12-13T02:33:29.759Z,925.55
2016-12-13T02:33:57.701Z,925.58
2016-12-13T02:34:25.581Z,925.6
2016-12-13T02:34:53.419Z,925.56
2016-12-13T02:35:21.257Z,925.56
2016-12-13T02:35:49.121Z,925.54
2016-12-13T02:36:17.072Z,925.53
2016-12-13T02:36:45.070Z,925.53
2016-12-13T02:37:12.891Z,925.55
2016-12-13T02:37:40.703Z,925.52
2016-12-13T02:38:08.743Z,925.54
2016-12-13T02:38:36.577Z,925.5
2016-12-13T02:39:04.386Z,925.55
2016-12-13T02:39:32.200Z,925.56
2016-12-13T02:40:00.041Z,925.55
2016-12-13T02:40:27.849Z,925.56
2016-12-13T02:40:55.688Z,925.58
2016-12-13T02:41:23.515Z,925.52
2016-12-13T02:41:51.367Z,925.55
2016-12-13T02:42:19.169Z,925.53
2016-12-13T02:42:47.243Z,925.53
2016-12-13T02:43:15.134Z,925.52
2016-12-13T02:43:42.978Z,925.5
2016-12-13T02:44:10.797Z,925.51
2016-12-13T02:44:38.639Z,925.51
2016-12-13T02:45:06.444Z,925.47
2016-12-13T02:45:34.285Z,925.48
2016-12-13T02:46:02.126Z,925.53
2016-12-13T02:46:29.959Z,925.53
2016-12-13T02:46:57.794Z,925.54
2016-12-13T02:47:25.654Z,925.53
2016-12-13T02:47:53.679Z,925.55
2016-12-13T02:48:21.535Z,925.54
2016-12-13T02:48:49.428Z,925.54
2016-12-13T02:49:17.369Z,925.55
2016-12-13T02:49:45.278Z,925.54
2016-12-13T02:50:13.201Z,925.57
2016-12-13T02:50:41.102Z,925.54
2016-12-13T02:51:08.922Z,925.54
2016-12-13T02:51:36.783Z,925.51
2016-12-13T02:52:04.592Z,925.55
2016-12-13T02:52:32.460Z,925.49
2016-12-13T02:53:00.524Z,925.49
2016-12-13T02:53:28.411Z,925.5
2016-12-13T02:53:56.215Z,925.49
2016-12-13T02:54:24.107Z,925.51
2016-12-13T02:54:51.975Z,925.47
2016-12-13T02:55:19.865Z,925.52
2016-12-13T02:55:47.722Z,925.52
2016-12-13T02:56:15.597Z,925.48
2016-12-13T02:56:43.471Z,925.53
2016-12-13T02:57:11.328Z,925.55
2016-12-13T02:57:39.261Z,925.51
2016-12-13T02:58:07.335Z,925.51
2016-12-13T02:58:35.164Z,925.5
2016-12-13T02:59:03.004Z,925.48
2016-12-13T02:59:30.820Z,925.45
2016-12-13T02:59:58.718Z,925.47
2016-12-13T03:00:26.549Z,925.45
2016-12-13T03:00:54.391Z,925.41
2016-12-13T03:01:22.330Z,925.44
2016-12-13T03:01:50.201Z,925.41
2016-12-13T03:02:18.056Z,925.45
2016-12-13T03:02:45.900Z,925.42
2016-12-13T03:03:13.988Z,925.46
2016-12-13T03:03:41.814Z,925.42
2016-12-13T03:04:09.666Z,925.43
2016-12-13T03:04:37.532Z,925.42
2016-12-13T03:05:05.408Z,925.42
2016-12-13T03:05:33.198Z,925.4
2016-12-13T03:06:01.060Z,925.33
2016-12-13T03:06:28.878Z,925.35
2016-12-13T03:06:56.688Z,925.33
2016-12-13T03:07:24.543Z,925.31
2016-12-13T03:07:52.383Z,925.29
2016-12-13T03:08:20.458Z,925.31
2016-12-13T03:08:48.314Z,925.25
2016-12-13T03:09:16.174Z,925.26
2016-12-13T03:09:44.071Z,925.29
2016-12-13T03:10:11.996Z,925.3
2016-12-13T03:10:39.859Z,925.31
2016-12-13T03:11:07.702Z,925.32
2016-12-13T03:11:35.653Z,925.29
2016-12-13T03:12:03.498Z,925.31
2016-12-13T03:12:31.322Z,925.3
2016-12-13T03:12:59.481Z,925.3
2016-12-13T03:13:27.464Z,925.3
2016-12-13T03:13:55.297Z,925.26
2016-12-13T03:14:23.181Z,925.28
2016-12-13T03:14:51.076Z,925.25
2016-12-13T03:15:18.931Z,925.21
2016-12-13T03:15:46.782Z,925.25
2016-12-13T03:16:14.675Z,925.25
2016-12-13T03:16:42.521Z,925.27
2016-12-13T03:17:10.354Z,925.23
2016-12-13T03:17:38.196Z,925.26
2016-12-13T03:18:06.234Z,925.26
2016-12-13T03:18:34.150Z,925.25
2016-12-13T03:19:02.050Z,925.26
2016-12-13T03:19:29.879Z,925.24
2016-12-13T03:19:57.715Z,925.28
2016-12-13T03:20:25.540Z,925.28
2016-12-13T03:20:53.398Z,925.27
2016-12-13T03:21:21.267Z,925.3
2016-12-13T03:21:49.146Z,925.26
2016-12-13T03:22:16.992Z,925.26
2016-12-13T03:22:44.826Z,925.23
2016-12-13T03:23:12.972Z,925.29
2016-12-13T03:23:40.797Z,925.25
2016-12-13T03:24:08.652Z,925.23
2016-12-13T03:24:36.480Z,925.23
2016-12-13T03:25:04.327Z,925.25
2016-12-13T03:25:32.150Z,925.26
2016-12-13T03:26:00.033Z,925.25
2016-12-13T03:26:27.893Z,925.26
2016-12-13T03:26:55.770Z,925.25
2016-12-13T03:27:23.621Z,925.28
2016-12-13T03:27:51.434Z,925.3
2016-12-13T03:28:19.475Z,925.25
2016-12-13T03:28:47.397Z,925.28
2016-12-13T03:29:15.279Z,925.31
2016-12-13T03:29:43.135Z,925.32
2016-12-13T03:30:11.037Z,925.29
2016-12-13T03:30:38.867Z,925.29
2016-12-13T03:31:06.671Z,925.26
2016-12-13T03:31:34.521Z,925.33
2016-12-13T03:32:02.436Z,925.33
2016-12-13T03:32:30.349Z,925.32
2016-12-13T03:32:58.149Z,925.31
2016-12-13T03:33:26.186Z,925.33
2016-12-13T03:33:54.027Z,925.3
2016-12-13T03:34:21.898Z,925.3
2016-12-13T03:34:49.764Z,925.28
2016-12-13T03:35:17.642Z,925.3
2016-12-13T03:35:45.461Z,925.29
2016-12-13T03:36:13.267Z,925.27
2016-12-13T03:36:41.117Z,925.27
2016-12-13T03:37:08.962Z,925.23
2016-12-13T03:37:36.810Z,925.22
2016-12-13T03:38:04.851Z,925.21
2016-12-13T03:38:32.686Z,925.19
2016-12-13T03:39:00.553Z,925.22
2016-12-13T03:39:28.392Z,925.16
2016-12-13T03:39:56.253Z,925.17
2016-12-13T03:40:24.261Z,925.18
2016-12-13T03:40:52.113Z,925.18
2016-12-13T03:41:19.980Z,925.17
2016-12-13T03:41:47.831Z,925.15
2016-12-13T03:42:15.670Z,925.16
2016-12-13T03:42:43.483Z,925.17
2016-12-13T03:43:11.471Z,925.17
2016-12-13T03:43:39.310Z,925.19
2016-12-13T03:44:07.145Z,925.2
2016-12-13T03:44:35.001Z,925.2
2016-12-13T03:45:02.840Z,925.19
2016-12-13T03:45:30.705Z,925.2
2016-12-13T03:45:58.528Z,925.16
2016-12-13T03:46:26.481Z,925.19
2016-12-13T03:46:54.353Z,925.18
2016-12-13T03:47:22.170Z,925.16
2016-12-13T03:47:50.103Z,925.13
2016-12-13T03:48:18.141Z,925.14
2016-12-13T03:48:46.068Z,925.11
2016-12-13T03:49:13.998Z,925.09
2016-12-13T03:49:41.798Z,925.09
2016-12-13T03:50:09.641Z,925.06
2016-12-13T03:50:37.531Z,925.06
2016-12-13T03:51:05.367Z,925.05
2016-12-13T03:51:33.177Z,925.05
2016-12-13T03:52:01.006Z,925.09
2016-12-13T03:52:28.826Z,925.08
2016-12-13T03:52:56.683Z,925.08
2016-12-13T03:53:24.750Z,925.07
2016-12-13T03:53:52.620Z,925.06
2016-12-13T03:54:20.442Z,925.02
2016-12-13T03:54:48.282Z,925.04
2016-12-13T03:55:16.100Z,925.06
2016-12-13T03:55:43.923Z,925.04
2016-12-13T03:56:11.740Z,925.06
2016-12-13T03:56:39.512Z,925.06
2016-12-13T03:57:07.440Z,925.07
2016-12-13T03:57:35.268Z,925.09
2016-12-13T03:58:03.071Z,925.08
2016-12-13T03:58:31.097Z,925.09
2016-12-13T03:58:58.953Z,925.08
2016-12-13T03:59:26.837Z,925.09
2016-12-13T03:59:54.808Z,925.07
2016-12-13T04:00:22.797Z,925.07
2016-12-13T04:00:50.686Z,925.1
2016-12-13T04:01:18.507Z,925.07
2016-12-13T04:01:46.398Z,925
2016-12-13T04:02:14.206Z,925.04
2016-12-13T04:02:42.054Z,925.02
2016-12-13T04:03:10.163Z,924.97
2016-12-13T04:03:38.106Z,924.99
2016-12-13T04:04:05.916Z,924.98
2016-12-13T04:04:33.852Z,924.97
2016-12-13T04:05:01.644Z,924.95
2016-12-13T04:05:29.526Z,924.93
2016-12-13T04:05:57.421Z,924.92
2016-12-13T04:06:25.231Z,924.93
2016-12-13T04:06:53.050Z,924.92
2016-12-13T04:07:20.871Z,924.93
2016-12-13T04:07:48.760Z,924.91
2016-12-13T04:08:16.896Z,924.93
2016-12-13T04:08:44.740Z,924.93
2016-12-13T04:09:12.547Z,924.93
2016-12-13T04:09:40.476Z,924.94
2016-12-13T04:10:08.326Z,924.97
2016-12-13T04:10:36.178Z,924.95
2016-12-13T04:11:04.037Z,925.03
2016-12-13T04:11:31.888Z,925
2016-12-13T04:11:59.698Z,925.03
2016-12-13T04:12:27.517Z,925.04
2016-12-13T04:12:55.373Z,925.04
2016-12-13T04:13:23.396Z,925.05
2016-12-13T04:13:51.290Z,925.07
2016-12-13T04:14:19.158Z,925.09
2016-12-13T04:14:47.014Z,925.07
2016-12-13T04:15:14.847Z,925.07
2016-12-13T04:15:42.645Z,925.05
2016-12-13T04:16:10.521Z,925.04
2016-12-13T04:16:38.394Z,924.98
2016-12-13T04:17:06.314Z,924.98
2016-12-13T04:17:34.257Z,924.98
2016-12-13T04:18:02.073Z,924.94
2016-12-13T04:18:30.174Z,924.94
2016-12-13T04:18:58.061Z,924.91
2016-12-13T04:19:25.906Z,924.9
2016-12-13T04:19:53.753Z,924.91
2016-12-13T04:20:21.571Z,924.93
2016-12-13T04:20:49.529Z,924.93
2016-12-13T04:21:17.360Z,924.89
2016-12-13T04:21:45.210Z,924.9
2016-12-13T04:22:13.057Z,924.88
2016-12-13T04:22:40.920Z,924.92
2016-12-13T04:23:08.853Z,924.91
2016-12-13T04:23:36.920Z,924.89
2016-12-13T04:24:04.847Z,924.89
2016-12-13T04:24:32.662Z,924.91
2016-12-13T04:25:00.518Z,924.91
2016-12-13T04:25:28.342Z,924.93
2016-12-13T04:25:56.198Z,924.9
2016-12-13T04:26:24.025Z,924.94
2016-12-13T04:26:51.966Z,924.9
2016-12-13T04:27:19.792Z,924.92
2016-12-13T04:27:47.692Z,924.96
2016-12-13T04:28:15.764Z,924.92
2016-12-13T04:28:43.594Z,924.87
2016-12-13T04:29:11.465Z,924.88
2016-12-13T04:29:39.269Z,924.91
2016-12-13T04:30:07.141Z,924.89
2016-12-13T04:30:34.993Z,924.86
2016-12-13T04:31:02.853Z,924.85
2016-12-13T04:31:30.651Z,924.91
2016-12-13T04:31:58.531Z,924.86
2016-12-13T04:32:26.364Z,924.87
2016-12-13T04:32:54.237Z,924.86
2016-12-13T04:33:22.269Z,924.82
2016-12-13T04:33:50.221Z,924.81
2016-12-13T04:34:18.091Z,924.74
2016-12-13T04:34:45.960Z,924.75
2016-12-13T04:35:13.809Z,924.73
2016-12-13T04:35:41.662Z,924.72
2016-12-13T04:36:09.518Z,924.77
2016-12-13T04:36:37.354Z,924.73
2016-12-13T04:37:05.159Z,924.73
2016-12-13T04:37:33.048Z,924.75
2016-12-13T04:38:00.900Z,924.73
2016-12-13T04:38:28.979Z,924.74
2016-12-13T04:38:56.891Z,924.73
2016-12-13T04:39:24.729Z,924.71
2016-12-13T04:39:52.711Z,924.72
2016-12-13T04:40:20.561Z,924.68
2016-12-13T04:40:48.436Z,924.69
2016-12-13T04:41:16.289Z,924.66
2016-12-13T04:41:44.135Z,924.68
2016-12-13T04:42:12.007Z,924.67
2016-12-13T04:42:39.818Z,924.65
2016-12-13T04:43:07.634Z,924.63
2016-12-13T04:43:35.671Z,924.62
2016-12-13T04:44:03.531Z,924.62
2016-12-13T04:44:31.387Z,924.59
2016-12-13T04:44:59.233Z,924.59
2016-12-13T04:45:27.081Z,924.61
2016-12-13T04:45:54.984Z,924.63
2016-12-13T04:46:22.828Z,924.62
2016-12-13T04:46:50.616Z,924.61
2016-12-13T04:47:18.475Z,924.64
2016-12-13T04:47:46.305Z,924.61
2016-12-13T04:48:14.249Z,924.63
2016-12-13T04:48:42.298Z,924.61
2016-12-13T04:49:10.149Z,924.6
2016-12-13T04:49:37.929Z,924.54
2016-12-13T04:50:05.749Z,924.51
2016-12-13T04:50:33.556Z,924.53
2016-12-13T04:51:01.458Z,924.53
2016-12-13T04:51:29.283Z,924.49
2016-12-13T04:51:57.155Z,924.45
2016-12-13T04:52:25.096Z,924.46
2016-12-13T04:52:52.993Z,924.44
2016-12-13T04:53:20.819Z,924.44
2016-12-13T04:53:48.897Z,924.4
2016-12-13T04:54:16.699Z,924.44
2016-12-13T04:54:44.506Z,924.41
2016-12-13T04:55:12.338Z,924.41
2016-12-13T04:55:40.215Z,924.4
2016-12-13T04:56:08.068Z,924.4
2016-12-13T04:56:35.924Z,924.41
2016-12-13T04:57:03.780Z,924.43
2016-12-13T04:57:31.588Z,924.47
2016-12-13T04:57:59.406Z,924.45
2016-12-13T04:58:27.447Z,924.42
2016-12-13T04:58:55.290Z,924.46
2016-12-13T04:59:23.111Z,924.46
2016-12-13T04:59:50.994Z,924.47
2016-12-13T05:00:18.873Z,924.45
2016-12-13T05:00:46.693Z,924.51
2016-12-13T05:01:14.548Z,924.49
2016-12-13T05:01:42.417Z,924.53
2016-12-13T05:02:10.251Z,924.53
2016-12-13T05:02:38.063Z,924.53
2016-12-13T05:03:05.896Z,924.6
2016-12-13T05:03:33.904Z,924.59
2016-12-13T05:04:01.707Z,924.6
2016-12-13T05:04:29.542Z,924.61
2016-12-13T05:04:57.429Z,924.6
2016-12-13T05:05:25.297Z,924.6
2016-12-13T05:05:53.152Z,924.61
2016-12-13T05:06:20.971Z,924.59
2016-12-13T05:06:48.858Z,924.59
2016-12-13T05:07:16.723Z,924.56
2016-12-13T05:07:44.591Z,924.54
2016-12-13T05:08:12.439Z,924.57
2016-12-13T05:08:40.484Z,924.55
2016-12-13T05:09:08.313Z,924.55
2016-12-13T05:09:36.166Z,924.55
2016-12-13T05:10:03.998Z,924.54
2016-12-13T05:10:31.864Z,924.52
2016-12-13T05:10:59.745Z,924.51
2016-12-13T05:11:27.594Z,924.54
2016-12-13T05:11:55.615Z,924.54
2016-12-13T05:12:23.553Z,924.55
2016-12-13T05:12:51.416Z,924.55
2016-12-13T05:13:19.205Z,924.57
2016-12-13T05:13:47.265Z,924.55
2016-12-13T05:14:15.147Z,924.52
2016-12-13T05:14:43.014Z,924.53
2016-12-13T05:15:10.841Z,924.55
2016-12-13T05:15:38.705Z,924.51
2016-12-13T05:16:06.556Z,924.52
2016-12-13T05:16:34.399Z,924.49
2016-12-13T05:17:02.232Z,924.52
2016-12-13T05:17:30.057Z,924.51
2016-12-13T05:17:57.915Z,924.49
2016-12-13T05:18:25.746Z,924.54
2016-12-13T05:18:53.759Z,924.51
2016-12-13T05:19:21.699Z,924.48
2016-12-13T05:19:49.520Z,924.49
2016-12-13T05:20:17.443Z,924.5
2016-12-13T05:20:45.296Z,924.5
2016-12-13T05:21:13.161Z,924.51
2016-12-13T05:21:41.121Z,924.47
2016-12-13T05:22:09.052Z,924.45
2016-12-13T05:22:36.993Z,924.49
2016-12-13T05:23:04.809Z,924.53
2016-12-13T05:23:32.923Z,924.49
2016-12-13T05:24:00.856Z,924.52
2016-12-13T05:24:28.672Z,924.52
2016-12-13T05:24:56.560Z,924.51
2016-12-13T05:25:24.401Z,924.52
2016-12-13T05:25:52.290Z,924.5
2016-12-13T05:26:20.159Z,924.52
2016-12-13T05:26:48.035Z,924.56
2016-12-13T05:27:15.832Z,924.55
2016-12-13T05:27:43.657Z,924.53
2016-12-13T05:28:11.604Z,924.52
2016-12-13T05:28:39.617Z,924.57
2016-12-13T05:29:07.458Z,924.52
2016-12-13T05:29:35.377Z,924.53
2016-12-13T05:30:03.218Z,924.49
2016-12-13T05:30:31.092Z,924.53
2016-12-13T05:30:59.023Z,924.5
2016-12-13T05:31:26.848Z,924.47
2016-12-13T05:31:54.754Z,924.51
2016-12-13T05:32:22.630Z,924.47
2016-12-13T05:32:50.552Z,924.45
2016-12-13T05:33:18.583Z,924.47
2016-12-13T05:33:46.663Z,924.45
2016-12-13T05:34:14.507Z,924.45
2016-12-13T05:34:42.352Z,924.42
2016-12-13T05:35:10.223Z,924.44
2016-12-13T05:35:38.092Z,924.42
2016-12-13T05:36:05.912Z,924.42
2016-12-13T05:36:33.943Z,924.42
2016-12-13T05:37:01.770Z,924.43
2016-12-13T05:37:29.579Z,924.44
2016-12-13T05:37:57.412Z,924.42
2016-12-13T05:38:25.492Z,924.4
2016-12-13T05:38:53.515Z,924.38
2016-12-13T05:39:21.371Z,924.44
2016-12-13T05:39:49.196Z,924.43
2016-12-13T05:40:17.034Z,924.42
2016-12-13T05:40:44.868Z,924.41
2016-12-13T05:41:12.713Z,924.43
2016-12-13T05:41:40.566Z,924.38
2016-12-13T05:42:08.418Z,924.39
2016-12-13T05:42:36.250Z,924.39
2016-12-13T05:43:04.095Z,924.38
2016-12-13T05:43:31.984Z,924.36
2016-12-13T05:44:00.011Z,924.35
2016-12-13T05:44:27.841Z,924.34
2016-12-13T05:44:55.688Z,924.32
2016-12-13T05:45:23.630Z,924.29
2016-12-13T05:45:51.465Z,924.29
2016-12-13T05:46:19.344Z,924.28
2016-12-13T05:46:47.191Z,924.29
2016-12-13T05:47:15.019Z,924.28
2016-12-13T05:47:42.856Z,924.3
2016-12-13T05:48:10.718Z,924.32
2016-12-13T05:48:38.559Z,924.28
2016-12-13T05:49:06.651Z,924.27